Česky Dansk Deutsch English Español Suomi Français Magyar Italiano Nederlands norsk Polski Português svenska Türkçe

 

Het Weer

Mus Tur-Afb (Turkije)

13:50, 29 juli 2016 (GMT)

NWNNE
WE
SWSSE
Home            
Mus Tur-Afb Batman Erzurum Van Diyarbakir Kamishli Elazig Erzincan Kars Yerevan Khoy Trabzon Mosul Urfa Malatya / Erhac Orumieh Deir Ezzor Tabriz Sivas Gaziantep Maragheh / Sahand Tbilisi Muhrani

Om een weerknop op uw website of weblog te plaatsen, copieer onderstaande code en plak die in uw pagina. In het eerste vakje staat HTML-code, in het tweede vakje UBB-code.


Add to Google

Details

Wind speed:3 bf, 7 kn, 3.6 m/s, 8.1 miles/h, 13.0 km/h
Wind direction:Variable
Visibility:Greater than 10000 m, 10 km, 32800 ft, 6.2 miles
Clouds:Aufgelockert bewölkt at 4000 ft, 1219 m
Temperature:33°C, 91°F
Gefühlte Temperatur:31°C, 87°F
Dew-point:7°C, 45°F
Atmospheric pressure:1009 hPa, 756.8 mmHg, 29.80 inHg, 0.996 atm
Relative humidity:19.9 %
METAR:LTCK 291350Z VRB07KT 9999 SCT040 33/07 Q1009

Snelkoppelingen

Actuele weersinformatie van de hele wereld. Voeg locaties toe met het plus (+) symbool. Deze snelkoppelingen kunnen worden toegevoegd aan Google.

Lid van de Technetium groep

website free tracking
StatCounter NetStat W3C Validator

07-10-2022 09:03:02
astro.technetium.be money.technetium.be phote.technetium.be tafeltennistafel.technetium.be www.ligfiets.net